Liberty Center, Iowa
Current Conditions -  °F | °C
As of 12:15 AM on Friday 31 Oct 2014 (Local Time) from KI75 Reporting Station
Overcast Overcast  
Wind Chill: 40°   Ceiling: 2700
Heat Index: 47°   Visibility: 10mi
Dew Point: 37°   Wind: 18mph
Humidity: 66%   Direction: 330°NNW
Pressure: 30.24"   Gusts: 25mph
Location:  41.2°N, 93.5°W
Report Text: KI75 310515Z AUTO 33016G22KT 10SM OVC027 09/03 A3024 RMK AO2 T00850025
Loading
Personal Weather Stations






























Interactive Weather Map
Tropical Storm Tracking
New forecast layout! Learn more

10-Day Weather Forecast

Advertisements
Track Severe Weather on mobile